Time;durP1;ratioP1;P1;durP2;ratioP2;P2;SDS_P1;SDS_P2;PMS_P1;PMS_P2;Temp;Humidity;BMP_temperature;BMP_pressure;BME280_temperature;BME280_humidity;BME280_pressure;Samples;Min_cycle;Max_cycle;Signal;HPM_P1;HPM_P2
2023/05/16 00:00:05;;;;;;;11.45;8.90;;;;;;;;;;6193097;28;20054;-77
2023/05/16 00:03:07;;;;;;;10.40;9.20;;;;;;;;;;6197705;28;20061;-77
2023/05/16 00:06:10;;;;;;;10.63;9.50;;;;;;;;;;6193842;28;20463;-77
2023/05/16 00:09:16;;;;;;;9.55;8.55;;;;;;;;;;6196383;28;20065;-77
2023/05/16 00:12:21;;;;;;;10.73;8.68;;;;;;;;;;6194907;28;20081;-77
2023/05/16 00:15:23;;;;;;;10.85;8.80;;;;;;;;;;6193869;28;20055;-77
2023/05/16 00:18:25;;;;;;;12.98;8.70;;;;;;;;;;6196227;28;20066;-78
2023/05/16 00:21:28;;;;;;;9.55;8.55;;;;;;;;;;6195607;28;20122;-77
2023/05/16 00:24:31;;;;;;;12.77;9.10;;;;;;;;;;6183348;28;20286;-77
2023/05/16 00:27:34;;;;;;;10.07;8.68;;;;;;;;;;6193723;28;20457;-77
2023/05/16 00:30:36;;;;;;;11.77;8.93;;;;;;;;;;6192113;28;20361;-77
2023/05/16 00:33:37;;;;;;;11.88;8.70;;;;;;;;;;6191996;28;20128;-77
2023/05/16 00:36:41;;;;;;;11.32;8.20;;;;;;;;;;6196066;28;20050;-77
2023/05/16 00:39:44;;;;;;;9.13;8.18;;;;;;;;;;6193496;28;20339;-78
2023/05/16 00:42:46;;;;;;;;;;;;;;;;;;6196935;28;20230;-77
2023/05/16 00:45:48;;;;;;;11.02;7.72;;;;;;;;;;6196655;28;19917;-77
2023/05/16 00:49:07;;;;;;;;;;;;;;;;;;;;;
2023/05/16 00:52:12;;;;;;;11.55;8.30;;;;;;;;;;6194162;28;20198;-77
2023/05/16 00:55:16;;;;;;;9.30;7.75;;;;;;;;;;6194350;28;20055;-77
2023/05/16 00:58:18;;;;;;;11.38;9.05;;;;;;;;;;6196492;28;20053;-77
2023/05/16 01:01:20;;;;;;;9.88;8.77;;;;;;;;;;6194674;28;20113;-77
2023/05/16 01:04:25;;;;;;;12.18;8.30;;;;;;;;;;6194967;28;20138;-77
2023/05/16 01:07:28;;;;;;;10.63;9.35;;;;;;;;;;6194127;28;20043;-77
2023/05/16 01:10:36;;;;;;;10.00;8.90;;;;;;;;;;6194081;28;20394;-77
2023/05/16 01:13:42;;;;;;;9.70;8.70;;;;;;;;;;6195951;28;20038;-77
2023/05/16 01:16:47;;;;;;;10.63;8.60;;;;;;;;;;6192903;28;20313;-77
2023/05/16 01:20:05;;;;;;;11.73;8.82;;;;;;;;;;6192897;28;20046;-77
2023/05/16 01:23:42;;;;;;;10.88;9.25;;;;;;;;;;6193592;28;20394;-77
2023/05/16 01:26:46;;;;;;;11.98;9.88;;;;;;;;;;6195233;28;20054;-77
2023/05/16 01:29:48;;;;;;;10.73;9.45;;;;;;;;;;6193840;28;20224;-77
2023/05/16 01:32:50;;;;;;;13.35;10.00;;;;;;;;;;6195175;28;20100;-76
2023/05/16 01:35:56;;;;;;;17.13;9.90;;;;;;;;;;6194637;28;20054;-76
2023/05/16 01:39:03;;;;;;;14.70;9.63;;;;;;;;;;6194409;28;20046;-77
2023/05/16 01:42:09;;;;;;;14.35;10.07;;;;;;;;;;6176324;28;20336;-77
2023/05/16 01:45:15;;;;;;;11.60;9.88;;;;;;;;;;6192053;28;20354;-77
2023/05/16 01:48:22;;;;;;;11.93;10.02;;;;;;;;;;6188705;28;21088;-77
2023/05/16 01:51:29;;;;;;;14.25;9.18;;;;;;;;;;6176996;28;20363;-77
2023/05/16 01:54:32;;;;;;;12.77;8.70;;;;;;;;;;6174217;28;20058;-77
2023/05/16 01:57:35;;;;;;;12.70;9.63;;;;;;;;;;6174282;28;20097;-77
2023/05/16 02:00:37;;;;;;;11.15;8.43;;;;;;;;;;6174560;28;20055;-77
2023/05/16 02:03:39;;;;;;;12.32;8.80;;;;;;;;;;6173959;28;20098;-77
2023/05/16 02:06:41;;;;;;;13.65;8.52;;;;;;;;;;6172678;28;20346;-77
2023/05/16 02:09:42;;;;;;;10.63;8.63;;;;;;;;;;6174226;28;20061;-77
2023/05/16 02:12:45;;;;;;;11.10;7.88;;;;;;;;;;6173522;28;20274;-77
2023/05/16 02:15:47;;;;;;;11.30;7.40;;;;;;;;;;6176044;28;20063;-78
2023/05/16 02:18:49;;;;;;;9.13;7.78;;;;;;;;;;6175923;28;20276;-77
2023/05/16 02:21:50;;;;;;;11.05;8.20;;;;;;;;;;6196270;28;20194;-77
2023/05/16 02:24:52;;;;;;;9.63;7.95;;;;;;;;;;6201262;28;20054;-77
2023/05/16 02:27:55;;;;;;;10.35;8.27;;;;;;;;;;6189669;28;20326;-76
2023/05/16 02:30:57;;;;;;;14.05;9.75;;;;;;;;;;6172177;28;20094;-77
2023/05/16 02:34:00;;;;;;;11.77;9.25;;;;;;;;;;6173693;28;20046;-77
2023/05/16 02:37:01;;;;;;;12.05;8.80;;;;;;;;;;6170793;28;20062;-77
2023/05/16 02:40:04;;;;;;;9.40;7.95;;;;;;;;;;6199373;28;20061;-77
2023/05/16 02:43:07;;;;;;;10.38;8.85;;;;;;;;;;6200221;28;20069;-77
2023/05/16 02:46:20;;;;;;;11.80;8.17;;;;;;;;;;6199254;28;20291;-76
2023/05/16 02:49:22;;;;;;;14.80;8.80;;;;;;;;;;6198291;28;20571;-77
2023/05/16 02:52:23;;;;;;;9.93;8.10;;;;;;;;;;6198325;28;20195;-77
2023/05/16 02:55:25;;;;;;;10.57;8.23;;;;;;;;;;6197274;28;20061;-77
2023/05/16 02:58:28;;;;;;;10.95;8.25;;;;;;;;;;6197177;28;20066;-77
2023/05/16 03:01:30;;;;;;;11.33;8.43;;;;;;;;;;6196821;28;20274;-77
2023/05/16 03:04:31;;;;;;;9.27;7.78;;;;;;;;;;6196459;28;20065;-77
2023/05/16 03:07:33;;;;;;;12.90;8.50;;;;;;;;;;6200828;28;20069;-76
2023/05/16 03:10:35;;;;;;;16.05;8.93;;;;;;;;;;6196675;28;20051;-77
2023/05/16 03:13:38;;;;;;;9.18;8.13;;;;;;;;;;6196831;28;20262;-77
2023/05/16 03:16:42;;;;;;;13.67;9.07;;;;;;;;;;6197212;28;20055;-77
2023/05/16 03:19:43;;;;;;;;;;;;;;;;;;6198251;28;20067;-77
2023/05/16 03:22:45;;;;;;;11.93;8.50;;;;;;;;;;6197324;28;19926;-77
2023/05/16 03:25:47;;;;;;;9.95;8.32;;;;;;;;;;6196905;28;20058;-77
2023/05/16 03:28:50;;;;;;;10.52;8.38;;;;;;;;;;6197871;28;20059;-77
2023/05/16 03:31:51;;;;;;;11.57;8.63;;;;;;;;;;6197186;28;20050;-77
2023/05/16 03:34:53;;;;;;;10.93;8.45;;;;;;;;;;6200356;28;20476;-77
2023/05/16 03:37:55;;;;;;;11.25;8.38;;;;;;;;;;6194486;28;20343;-76
2023/05/16 03:40:56;;;;;;;12.18;8.32;;;;;;;;;;6195873;28;20058;-77
2023/05/16 03:43:59;;;;;;;13.68;8.60;;;;;;;;;;6196250;28;20227;-77
2023/05/16 03:47:01;;;;;;;10.27;8.17;;;;;;;;;;6192315;28;20460;-77
2023/05/16 03:50:03;;;;;;;9.70;8.52;;;;;;;;;;6194841;28;20046;-77
2023/05/16 03:53:04;;;;;;;11.35;8.68;;;;;;;;;;6195540;28;20046;-77
2023/05/16 03:56:06;;;;;;;10.88;8.65;;;;;;;;;;6195132;28;20051;-77
2023/05/16 03:59:09;;;;;;;10.48;9.07;;;;;;;;;;6194206;28;20235;-78
2023/05/16 04:02:11;;;;;;;11.23;8.57;;;;;;;;;;6197380;28;20047;-77
2023/05/16 04:05:13;;;;;;;11.45;8.65;;;;;;;;;;6198382;28;20274;-77
2023/05/16 04:08:15;;;;;;;11.07;9.13;;;;;;;;;;6197136;28;20057;-77
2023/05/16 04:11:16;;;;;;;13.90;9.07;;;;;;;;;;6195726;28;20138;-77
2023/05/16 04:14:19;;;;;;;10.60;9.10;;;;;;;;;;6193974;28;20062;-78
2023/05/16 04:17:21;;;;;;;14.03;9.70;;;;;;;;;;6195941;28;20062;-78
2023/05/16 04:20:22;;;;;;;12.90;9.38;;;;;;;;;;6193826;28;20064;-77
2023/05/16 04:23:24;;;;;;;12.90;9.75;;;;;;;;;;6195732;28;20096;-77
2023/05/16 04:26:26;;;;;;;11.18;9.25;;;;;;;;;;6196424;28;20397;-77
2023/05/16 04:29:30;;;;;;;16.02;10.25;;;;;;;;;;6194953;28;20050;-76
2023/05/16 04:32:34;;;;;;;13.30;10.23;;;;;;;;;;6194836;28;20097;-76
2023/05/16 04:35:36;;;;;;;14.38;9.88;;;;;;;;;;6194108;28;20161;-75
2023/05/16 04:38:38;;;;;;;15.10;10.10;;;;;;;;;;6194426;28;20349;-75
2023/05/16 04:41:39;;;;;;;18.30;10.07;;;;;;;;;;6194820;28;20054;-76
2023/05/16 04:44:42;;;;;;;13.88;9.15;;;;;;;;;;6196868;28;20388;-75
2023/05/16 04:47:44;;;;;;;11.18;9.35;;;;;;;;;;6195749;28;20046;-77
2023/05/16 04:50:46;;;;;;;11.82;9.95;;;;;;;;;;6192954;28;20047;-78
2023/05/16 04:53:47;;;;;;;12.05;10.25;;;;;;;;;;6194152;28;21053;-78
2023/05/16 04:56:49;;;;;;;11.52;9.07;;;;;;;;;;6192102;28;20050;-77
2023/05/16 04:59:52;;;;;;;14.80;10.30;;;;;;;;;;6195853;28;20102;-78
2023/05/16 05:02:54;;;;;;;16.00;11.00;;;;;;;;;;6195319;28;20059;-77
2023/05/16 05:05:55;;;;;;;15.52;11.43;;;;;;;;;;6192020;28;20106;-79
2023/05/16 05:08:57;;;;;;;15.85;10.93;;;;;;;;;;6191942;28;20384;-79
2023/05/16 05:11:59;;;;;;;18.95;10.90;;;;;;;;;;6192155;28;20401;-81
2023/05/16 05:15:02;;;;;;;16.30;11.27;;;;;;;;;;6194505;28;21034;-78
2023/05/16 05:18:04;;;;;;;16.48;11.98;;;;;;;;;;6193911;28;20329;-78
2023/05/16 05:21:06;;;;;;;13.95;11.50;;;;;;;;;;6194313;28;20125;-79
2023/05/16 05:24:07;;;;;;;16.35;12.13;;;;;;;;;;6194484;28;20054;-79
2023/05/16 05:27:09;;;;;;;16.40;12.48;;;;;;;;;;6193564;28;20065;-79
2023/05/16 05:30:12;;;;;;;17.17;11.82;;;;;;;;;;6194031;28;20051;-78
2023/05/16 05:33:17;;;;;;;16.50;13.70;;;;;;;;;;6190952;28;20058;-79
2023/05/16 05:36:18;;;;;;;23.80;13.02;;;;;;;;;;6194143;28;20212;-79
2023/05/16 05:39:20;;;;;;;18.98;14.60;;;;;;;;;;6190779;28;20054;-79
2023/05/16 05:42:22;;;;;;;18.67;13.40;;;;;;;;;;6196039;28;20062;-80
2023/05/16 05:45:25;;;;;;;19.25;13.15;;;;;;;;;;6189376;28;20062;-80
2023/05/16 05:48:28;;;;;;;18.70;14.13;;;;;;;;;;6194029;28;20063;-79
2023/05/16 05:51:30;;;;;;;20.60;16.25;;;;;;;;;;6192218;28;20058;-79
2023/05/16 05:54:32;;;;;;;20.48;15.88;;;;;;;;;;6194929;28;20062;-79
2023/05/16 05:57:33;;;;;;;22.63;16.23;;;;;;;;;;6192794;28;20309;-79
2023/05/16 06:00:36;;;;;;;23.02;16.48;;;;;;;;;;6194106;28;20054;-79
2023/05/16 06:03:38;;;;;;;21.90;16.48;;;;;;;;;;6193884;28;20054;-80
2023/05/16 06:06:40;;;;;;;23.45;17.92;;;;;;;;;;6191881;28;20054;-79
2023/05/16 06:09:42;;;;;;;20.27;17.13;;;;;;;;;;6191640;28;20053;-79
2023/05/16 06:12:44;;;;;;;20.13;17.77;;;;;;;;;;6192708;28;20054;-79
2023/05/16 06:15:51;;;;;;;24.38;17.70;;;;;;;;;;6190850;28;20055;-80
2023/05/16 06:18:52;;;;;;;20.73;16.27;;;;;;;;;;6193406;28;20105;-79
2023/05/16 06:21:54;;;;;;;19.00;14.55;;;;;;;;;;6191613;28;20055;-80
2023/05/16 06:24:56;;;;;;;18.30;15.18;;;;;;;;;;6193339;28;20062;-81
2023/05/16 06:27:57;;;;;;;17.77;15.15;;;;;;;;;;6197403;28;21232;-80
2023/05/16 06:31:00;;;;;;;21.58;15.27;;;;;;;;;;6198079;28;20061;-80
2023/05/16 06:34:02;;;;;;;19.80;15.17;;;;;;;;;;6197460;28;20054;-79
2023/05/16 06:37:04;;;;;;;18.67;16.65;;;;;;;;;;6199626;28;20066;-80
2023/05/16 06:40:07;;;;;;;17.98;15.32;;;;;;;;;;6197967;28;20054;-80
2023/05/16 06:43:08;;;;;;;16.20;13.33;;;;;;;;;;6198729;28;20057;-80
2023/05/16 06:46:11;;;;;;;17.65;14.55;;;;;;;;;;6200059;28;20476;-80
2023/05/16 06:49:13;;;;;;;18.03;15.07;;;;;;;;;;6199916;28;20058;-80
2023/05/16 06:52:15;;;;;;;17.65;14.65;;;;;;;;;;6197887;28;20105;-80
2023/05/16 06:55:17;;;;;;;19.33;13.82;;;;;;;;;;6196639;28;20062;-80
2023/05/16 06:58:18;;;;;;;17.73;10.73;;;;;;;;;;6197715;28;20258;-80
2023/05/16 07:01:21;;;;;;;9.02;8.15;;;;;;;;;;6197052;28;20058;-81
2023/05/16 07:04:23;;;;;;;8.23;7.33;;;;;;;;;;6198493;28;20058;-81
2023/05/16 07:07:25;;;;;;;9.75;7.38;;;;;;;;;;6196442;28;20104;-80
2023/05/16 07:10:27;;;;;;;9.32;7.25;;;;;;;;;;6198501;28;20054;-80
2023/05/16 07:13:28;;;;;;;7.85;7.00;;;;;;;;;;6195472;28;20054;-80
2023/05/16 07:16:32;;;;;;;9.65;6.72;;;;;;;;;;6195486;28;20112;-80
2023/05/16 07:19:33;;;;;;;8.57;6.90;;;;;;;;;;6197512;28;20054;-80
2023/05/16 07:22:35;;;;;;;8.93;5.93;;;;;;;;;;6197619;28;20068;-80
2023/05/16 07:25:36;;;;;;;10.55;6.20;;;;;;;;;;6198460;28;20069;-80
2023/05/16 07:28:38;;;;;;;7.72;5.10;;;;;;;;;;6198135;28;20054;-80
2023/05/16 07:31:41;;;;;;;5.38;4.70;;;;;;;;;;6197133;28;20096;-80
2023/05/16 07:34:43;;;;;;;11.32;5.05;;;;;;;;;;6199065;28;20054;-80
2023/05/16 07:37:45;;;;;;;6.47;5.22;;;;;;;;;;6193808;28;20058;-80
2023/05/16 07:40:46;;;;;;;6.47;5.20;;;;;;;;;;6196054;28;20054;-80
2023/05/16 07:43:48;;;;;;;7.93;5.93;;;;;;;;;;6197381;28;20101;-80
2023/05/16 07:46:51;;;;;;;7.38;6.13;;;;;;;;;;6198436;28;20058;-80
2023/05/16 07:49:53;;;;;;;9.23;6.65;;;;;;;;;;6196955;28;20050;-80
2023/05/16 07:52:55;;;;;;;8.85;7.00;;;;;;;;;;6195940;28;20273;-79
2023/05/16 07:55:56;;;;;;;10.70;7.57;;;;;;;;;;6193788;28;20050;-79
2023/05/16 07:58:58;;;;;;;8.68;7.78;;;;;;;;;;6195913;28;20230;-79
2023/05/16 08:02:01;;;;;;;11.25;7.88;;;;;;;;;;6194059;28;20058;-80
2023/05/16 08:05:03;;;;;;;11.63;8.10;;;;;;;;;;6194324;28;20054;-80
2023/05/16 08:08:05;;;;;;;16.50;9.40;;;;;;;;;;6195321;28;20286;-80
2023/05/16 08:11:07;;;;;;;11.50;9.45;;;;;;;;;;6194989;28;20069;-80
2023/05/16 08:14:08;;;;;;;14.38;10.55;;;;;;;;;;6194783;28;20058;-79
2023/05/16 08:17:11;;;;;;;12.73;10.73;;;;;;;;;;6196506;28;20350;-79
2023/05/16 08:20:14;;;;;;;12.18;10.30;;;;;;;;;;6196140;28;20358;-79
2023/05/16 08:23:16;;;;;;;15.93;11.17;;;;;;;;;;6196363;28;20335;-79
2023/05/16 08:26:18;;;;;;;11.70;10.27;;;;;;;;;;6193397;28;20054;-79
2023/05/16 08:29:19;;;;;;;13.50;10.40;;;;;;;;;;6194604;28;20042;-79
2023/05/16 08:32:23;;;;;;;13.57;10.75;;;;;;;;;;6194988;28;20392;-79
2023/05/16 08:35:24;;;;;;;14.25;9.25;;;;;;;;;;6194602;28;20130;-80
2023/05/16 08:38:26;;;;;;;11.43;8.82;;;;;;;;;;6196231;28;20051;-79
2023/05/16 08:41:28;;;;;;;12.32;8.70;;;;;;;;;;6192895;28;20323;-79
2023/05/16 08:44:29;;;;;;;11.00;7.07;;;;;;;;;;6193300;28;20042;-80
2023/05/16 08:47:33;;;;;;;10.05;6.35;;;;;;;;;;6196256;28;20050;-79
2023/05/16 08:50:35;;;;;;;8.57;5.05;;;;;;;;;;6190677;28;20065;-79
2023/05/16 08:53:41;;;;;;;9.18;4.68;;;;;;;;;;6194712;28;20061;-80
2023/05/16 08:56:43;;;;;;;7.28;3.60;;;;;;;;;;6196238;28;20153;-79
2023/05/16 08:59:45;;;;;;;6.18;3.60;;;;;;;;;;6193729;28;20132;-79
2023/05/16 09:02:48;;;;;;;5.82;3.28;;;;;;;;;;6195559;28;20578;-79
2023/05/16 09:05:51;;;;;;;7.97;3.10;;;;;;;;;;6195818;28;20062;-79
2023/05/16 09:08:53;;;;;;;4.53;2.25;;;;;;;;;;6194023;28;20231;-79
2023/05/16 09:11:54;;;;;;;4.35;2.08;;;;;;;;;;6197221;28;20345;-79
2023/05/16 09:14:56;;;;;;;4.45;2.45;;;;;;;;;;6193271;28;20054;-79
2023/05/16 09:18:00;;;;;;;3.45;1.80;;;;;;;;;;6194667;28;20245;-79
2023/05/16 09:21:03;;;;;;;6.20;1.90;;;;;;;;;;6194716;28;20058;-79
2023/05/16 09:24:05;;;;;;;2.40;1.80;;;;;;;;;;6195177;28;20323;-79
2023/05/16 09:27:08;;;;;;;4.03;1.88;;;;;;;;;;6195495;28;20112;-79
2023/05/16 09:30:10;;;;;;;6.03;1.80;;;;;;;;;;6193295;28;20050;-79
2023/05/16 09:33:14;;;;;;;4.38;1.80;;;;;;;;;;6195600;28;20059;-79
2023/05/16 09:36:15;;;;;;;2.45;1.52;;;;;;;;;;6197681;28;20050;-79
2023/05/16 09:39:17;;;;;;;4.68;1.52;;;;;;;;;;6193330;28;20334;-79
2023/05/16 09:42:20;;;;;;;3.63;1.55;;;;;;;;;;6195031;28;20062;-79
2023/05/16 09:45:22;;;;;;;2.47;1.40;;;;;;;;;;6193449;28;20055;-80
2023/05/16 09:48:27;;;;;;;4.10;1.67;;;;;;;;;;6194685;28;20100;-79
2023/05/16 09:51:28;;;;;;;9.85;2.08;;;;;;;;;;6194529;28;20125;-79
2023/05/16 09:54:32;;;;;;;3.05;2.17;;;;;;;;;;6191535;28;20530;-78
2023/05/16 09:57:33;;;;;;;4.97;2.00;;;;;;;;;;6195199;28;20117;-80
2023/05/16 10:00:35;;;;;;;6.95;2.30;;;;;;;;;;6193579;28;20668;-81
2023/05/16 10:03:40;;;;;;;3.20;1.98;;;;;;;;;;6197515;28;20050;-81
2023/05/16 10:06:42;;;;;;;10.18;2.00;;;;;;;;;;6200353;28;20690;-80
2023/05/16 10:09:43;;;;;;;5.38;2.58;;;;;;;;;;6195485;28;20058;-81
2023/05/16 10:12:45;;;;;;;6.80;2.40;;;;;;;;;;6198183;28;20120;-80
2023/05/16 10:15:48;;;;;;;5.13;2.00;;;;;;;;;;6198413;28;20271;-81
2023/05/16 10:18:52;;;;;;;6.25;1.90;;;;;;;;;;6198501;28;20053;-80
2023/05/16 10:21:55;;;;;;;;;;;;;;;;;;6198327;28;20065;-80
2023/05/16 10:25:04;;;;;;;6.93;2.10;;;;;;;;;;6197889;28;20198;-78
2023/05/16 10:28:07;;;;;;;4.47;2.22;;;;;;;;;;6197762;28;20286;-81
2023/05/16 10:31:10;;;;;;;4.20;2.73;;;;;;;;;;6202156;28;20552;-80
2023/05/16 10:34:13;;;;;;;6.93;2.90;;;;;;;;;;6197022;28;20066;-77
2023/05/16 10:37:15;;;;;;;5.45;2.60;;;;;;;;;;6197915;28;20108;-78
2023/05/16 10:40:17;;;;;;;3.95;2.78;;;;;;;;;;6199379;28;20046;-77
2023/05/16 10:43:24;;;;;;;4.60;2.88;;;;;;;;;;6197677;28;20251;-81
2023/05/16 10:46:27;;;;;;;7.40;3.53;;;;;;;;;;6199621;28;20047;-81
2023/05/16 10:49:31;;;;;;;4.13;2.90;;;;;;;;;;6198809;28;20058;-79
2023/05/16 10:52:34;;;;;;;4.13;2.28;;;;;;;;;;6200492;28;20117;-76
2023/05/16 10:55:36;;;;;;;76.75;36.88;;;;;;;;;;6198555;28;20058;-76
2023/05/16 10:58:46;;;;;;;18.38;10.05;;;;;;;;;;6201156;28;20068;-77
2023/05/16 11:01:52;;;;;;;9.25;5.72;;;;;;;;;;6198828;28;20141;-77
2023/05/16 11:04:58;;;;;;;114.15;59.75;;;;;;;;;;6196882;28;20058;-78
2023/05/16 11:08:05;;;;;;;20.33;13.30;;;;;;;;;;6200630;28;20058;-79
2023/05/16 11:11:40;;;;;;;4.03;3.20;;;;;;;;;;6197238;28;20144;-77
2023/05/16 11:14:42;;;;;;;5.45;3.60;;;;;;;;;;6182194;28;20338;-79
2023/05/16 11:17:43;;;;;;;5.05;3.40;;;;;;;;;;6197102;28;20105;-79
2023/05/16 11:20:51;;;;;;;3.72;3.22;;;;;;;;;;6197665;28;20066;-79
2023/05/16 11:24:23;;;;;;;4.13;3.10;;;;;;;;;;6194054;28;20121;-77
2023/05/16 11:27:27;;;;;;;3.97;3.13;;;;;;;;;;6196455;28;20047;-79
2023/05/16 11:30:28;;;;;;;;;;;;;;;;;;6198728;28;20172;-79
2023/05/16 11:33:34;;;;;;;5.40;3.38;;;;;;;;;;6195639;28;19918;-79
2023/05/16 11:36:39;;;;;;;5.38;3.40;;;;;;;;;;6196440;28;20078;-78
2023/05/16 11:39:41;;;;;;;4.50;3.20;;;;;;;;;;6196021;28;20046;-80
2023/05/16 11:42:43;;;;;;;4.53;3.15;;;;;;;;;;6199099;28;20054;-79
2023/05/16 11:45:45;;;;;;;5.60;3.30;;;;;;;;;;6193374;28;20127;-81
2023/05/16 11:48:47;;;;;;;3.67;2.67;;;;;;;;;;6197003;28;20054;-78
2023/05/16 11:51:51;;;;;;;3.65;2.55;;;;;;;;;;6195305;28;20054;-78
2023/05/16 11:54:53;;;;;;;3.35;2.88;;;;;;;;;;6196028;28;20050;-79
2023/05/16 11:57:56;;;;;;;4.40;2.50;;;;;;;;;;6196669;28;20054;-81
2023/05/16 12:00:59;;;;;;;3.50;2.80;;;;;;;;;;6196117;28;21059;-78
2023/05/16 12:04:00;;;;;;;22.10;15.43;;;;;;;;;;6195789;28;20390;-78
2023/05/16 12:07:04;;;;;;;21.63;12.63;;;;;;;;;;6197230;28;20152;-78
2023/05/16 12:10:06;;;;;;;;;;;;;;;;;;6196323;28;20054;-77
2023/05/16 12:13:08;;;;;;;5.55;3.25;;;;;;;;;;6194822;28;19989;-79
2023/05/16 12:16:10;;;;;;;4.15;2.53;;;;;;;;;;6194839;28;20051;-77
2023/05/16 12:19:12;;;;;;;4.32;2.80;;;;;;;;;;6194983;28;20054;-79
2023/05/16 12:22:17;;;;;;;4.25;2.97;;;;;;;;;;6194737;28;20038;-80
2023/05/16 12:25:26;;;;;;;4.57;2.63;;;;;;;;;;6193167;28;20221;-78
2023/05/16 12:28:32;;;;;;;3.95;3.00;;;;;;;;;;6195897;28;20049;-78
2023/05/16 12:31:37;;;;;;;7.53;3.70;;;;;;;;;;6196521;28;20081;-79
2023/05/16 12:34:39;;;;;;;5.47;3.08;;;;;;;;;;6194799;28;20121;-79
2023/05/16 12:37:44;;;;;;;2.75;2.40;;;;;;;;;;6194592;28;20069;-79
2023/05/16 12:40:47;;;;;;;4.10;2.85;;;;;;;;;;6195717;28;20046;-79
2023/05/16 12:43:49;;;;;;;4.40;2.58;;;;;;;;;;6196577;28;20139;-80
2023/05/16 12:46:51;;;;;;;6.18;2.67;;;;;;;;;;6197396;28;20046;-80
2023/05/16 12:49:53;;;;;;;3.35;3.00;;;;;;;;;;6193647;28;20058;-79
2023/05/16 12:53:00;;;;;;;76.63;49.10;;;;;;;;;;6195841;28;20091;-78
2023/05/16 12:56:03;;;;;;;40.85;25.75;;;;;;;;;;6195170;28;20251;-78
2023/05/16 12:59:04;;;;;;;5.95;4.13;;;;;;;;;;6193099;28;20043;-80
2023/05/16 13:02:06;;;;;;;3.95;3.13;;;;;;;;;;6195530;28;20255;-78
2023/05/16 13:05:09;;;;;;;5.93;3.80;;;;;;;;;;6192739;28;20061;-80
2023/05/16 13:08:12;;;;;;;7.57;3.88;;;;;;;;;;6193600;28;20241;-79
2023/05/16 13:11:13;;;;;;;5.53;3.73;;;;;;;;;;6193576;28;21337;-79
2023/05/16 13:14:16;;;;;;;5.80;3.60;;;;;;;;;;6194321;28;20500;-79
2023/05/16 13:17:17;;;;;;;5.65;3.45;;;;;;;;;;6193995;28;20234;-79
2023/05/16 13:20:19;;;;;;;6.13;3.30;;;;;;;;;;6195792;28;20510;-79
2023/05/16 13:23:22;;;;;;;3.85;3.03;;;;;;;;;;6195378;28;20054;-79
2023/05/16 13:26:24;;;;;;;3.87;2.83;;;;;;;;;;6193239;28;20054;-79
2023/05/16 13:29:25;;;;;;;5.20;3.28;;;;;;;;;;6193278;28;20473;-79
2023/05/16 13:32:27;;;;;;;5.82;3.20;;;;;;;;;;6196494;28;20050;-77
2023/05/16 13:35:29;;;;;;;5.45;3.28;;;;;;;;;;6195240;28;20058;-78
2023/05/16 13:38:32;;;;;;;4.10;2.95;;;;;;;;;;6196422;28;20278;-78
2023/05/16 13:41:36;;;;;;;5.10;2.80;;;;;;;;;;6196632;28;20058;-79
2023/05/16 13:44:38;;;;;;;3.33;2.67;;;;;;;;;;6200358;28;20466;-79
2023/05/16 13:47:40;;;;;;;4.82;3.15;;;;;;;;;;6198774;28;20054;-78
2023/05/16 13:50:41;;;;;;;4.45;2.97;;;;;;;;;;6199029;28;20054;-79
2023/05/16 13:53:44;;;;;;;3.47;2.60;;;;;;;;;;6195936;28;20035;-78
2023/05/16 13:56:46;;;;;;;5.15;2.90;;;;;;;;;;6196543;28;20050;-79
2023/05/16 13:59:48;;;;;;;3.45;2.60;;;;;;;;;;6198893;28;20058;-79
2023/05/16 14:02:50;;;;;;;6.88;3.13;;;;;;;;;;6196983;28;20772;-78
2023/05/16 14:05:51;;;;;;;6.95;3.20;;;;;;;;;;6198217;28;20334;-79
2023/05/16 14:08:54;;;;;;;4.10;2.97;;;;;;;;;;6196815;28;20050;-78
2023/05/16 14:11:56;;;;;;;4.97;3.10;;;;;;;;;;6196396;28;20058;-78
2023/05/16 14:14:58;;;;;;;4.25;3.25;;;;;;;;;;6194323;28;20051;-79
2023/05/16 14:17:59;;;;;;;4.57;4.10;;;;;;;;;;6197322;28;20337;-79
2023/05/16 14:21:01;;;;;;;4.78;3.42;;;;;;;;;;6198562;28;20081;-78
2023/05/16 14:24:05;;;;;;;5.20;3.40;;;;;;;;;;6197105;28;20046;-78
2023/05/16 14:27:06;;;;;;;;;;;;;;;;;;6199510;28;20046;-78
2023/05/16 14:30:09;;;;;;;6.72;3.47;;;;;;;;;;6197919;28;20013;-78
2023/05/16 14:33:11;;;;;;;4.90;4.07;;;;;;;;;;6198289;28;20105;-79
2023/05/16 14:36:13;;;;;;;5.22;4.00;;;;;;;;;;6196071;28;20074;-78
2023/05/16 14:39:16;;;;;;;31.42;18.60;;;;;;;;;;6196905;28;20070;-79
2023/05/16 14:42:18;;;;;;;6.95;5.13;;;;;;;;;;6199560;28;20058;-78
2023/05/16 14:45:19;;;;;;;41.03;27.00;;;;;;;;;;6200298;28;20322;-79
2023/05/16 14:48:21;;;;;;;17.20;10.65;;;;;;;;;;6198601;28;20049;-78
2023/05/16 14:51:23;;;;;;;8.15;4.72;;;;;;;;;;6198094;28;20070;-79
2023/05/16 14:54:26;;;;;;;5.03;4.47;;;;;;;;;;6200227;28;20073;-80
2023/05/16 14:57:27;;;;;;;10.27;6.35;;;;;;;;;;6198600;28;20393;-79
2023/05/16 15:00:30;;;;;;;8.65;4.05;;;;;;;;;;6198256;28;20046;-78
2023/05/16 15:03:34;;;;;;;7.30;3.80;;;;;;;;;;6193014;28;20063;-79
2023/05/16 15:06:36;;;;;;;3.35;3.00;;;;;;;;;;6198062;28;20109;-78
2023/05/16 15:09:45;;;;;;;3.95;2.80;;;;;;;;;;6194514;28;20063;-79
2023/05/16 15:12:48;;;;;;;5.38;3.30;;;;;;;;;;6197257;28;20058;-78
2023/05/16 15:16:04;;;;;;;4.07;2.88;;;;;;;;;;6195606;28;20345;-79
2023/05/16 15:19:06;;;;;;;4.10;2.40;;;;;;;;;;6195139;28;20058;-78
2023/05/16 15:22:09;;;;;;;6.35;2.22;;;;;;;;;;6196692;28;20042;-79
2023/05/16 15:25:12;;;;;;;3.47;2.40;;;;;;;;;;6198620;28;20054;-79
2023/05/16 15:28:14;;;;;;;2.90;2.50;;;;;;;;;;6194783;28;20370;-78
2023/05/16 15:31:16;;;;;;;6.70;3.20;;;;;;;;;;6190229;28;20346;-80
2023/05/16 15:34:17;;;;;;;4.25;2.95;;;;;;;;;;6197458;28;20330;-79
2023/05/16 15:37:19;;;;;;;7.07;2.47;;;;;;;;;;6194588;28;20266;-80
2023/05/16 15:40:23;;;;;;;2.70;2.30;;;;;;;;;;6195969;28;20051;-79
2023/05/16 15:43:25;;;;;;;3.20;2.20;;;;;;;;;;6198807;28;20061;-79
2023/05/16 15:46:31;;;;;;;4.68;2.70;;;;;;;;;;6195877;28;20050;-79
2023/05/16 15:49:36;;;;;;;2.80;2.15;;;;;;;;;;6196181;28;20348;-79
2023/05/16 15:52:41;;;;;;;3.53;2.60;;;;;;;;;;6196791;28;20054;-79
2023/05/16 15:55:56;;;;;;;3.72;2.58;;;;;;;;;;6196419;28;20064;-79
2023/05/16 15:59:06;;;;;;;5.07;2.50;;;;;;;;;;6195740;28;20062;-79
2023/05/16 16:02:08;;;;;;;2.75;2.20;;;;;;;;;;6193044;28;20054;-79
2023/05/16 16:05:10;;;;;;;3.95;2.40;;;;;;;;;;6195177;28;20054;-79
2023/05/16 16:08:11;;;;;;;3.28;2.30;;;;;;;;;;6194864;28;20054;-79
2023/05/16 16:11:16;;;;;;;3.08;2.45;;;;;;;;;;6195955;28;20059;-78
2023/05/16 16:14:18;;;;;;;2.38;2.05;;;;;;;;;;6194002;28;20335;-79
2023/05/16 16:17:25;;;;;;;3.03;2.33;;;;;;;;;;6195737;28;20099;-79
2023/05/16 16:20:27;;;;;;;4.47;2.38;;;;;;;;;;6195287;28;20042;-79
2023/05/16 16:23:42;;;;;;;2.88;2.08;;;;;;;;;;6182363;28;20220;-79
2023/05/16 16:26:48;;;;;;;4.60;2.58;;;;;;;;;;6198998;28;20058;-79
2023/05/16 16:29:50;;;;;;;3.38;1.90;;;;;;;;;;6195668;28;20138;-78
2023/05/16 16:32:54;;;;;;;3.05;2.15;;;;;;;;;;6194657;28;20133;-79
2023/05/16 16:35:58;;;;;;;5.00;1.92;;;;;;;;;;6195215;28;20055;-79
2023/05/16 16:39:04;;;;;;;3.03;2.53;;;;;;;;;;6194189;28;20793;-78
2023/05/16 16:42:14;;;;;;;2.05;1.77;;;;;;;;;;6194913;28;20058;-79
2023/05/16 16:45:15;;;;;;;3.20;2.08;;;;;;;;;;6196171;28;20061;-79
2023/05/16 16:48:17;;;;;;;3.20;2.13;;;;;;;;;;6196280;28;20422;-79
2023/05/16 16:51:19;;;;;;;3.38;2.00;;;;;;;;;;6194400;28;20054;-79
2023/05/16 16:54:29;;;;;;;2.35;1.50;;;;;;;;;;6195935;28;20055;-79
2023/05/16 16:57:36;;;;;;;3.58;1.60;;;;;;;;;;6190966;28;20076;-79
2023/05/16 17:00:46;;;;;;;4.45;2.00;;;;;;;;;;6192851;28;20054;-78
2023/05/16 17:03:48;;;;;;;3.80;2.00;;;;;;;;;;6193718;28;20065;-79
2023/05/16 17:06:53;;;;;;;5.78;2.63;;;;;;;;;;6194447;28;20318;-79
2023/05/16 17:10:07;;;;;;;4.45;2.83;;;;;;;;;;6187393;28;20042;-78
2023/05/16 17:13:13;;;;;;;3.30;2.50;;;;;;;;;;6193195;28;20126;-79
2023/05/16 17:16:15;;;;;;;2.90;2.33;;;;;;;;;;6190900;28;20086;-78
2023/05/16 17:19:17;;;;;;;3.53;2.55;;;;;;;;;;6191921;28;20061;-83
2023/05/16 17:22:20;;;;;;;3.85;2.25;;;;;;;;;;6193462;28;20042;-79
2023/05/16 17:25:21;;;;;;;2.83;1.70;;;;;;;;;;6193220;28;20054;-78
2023/05/16 17:28:25;;;;;;;1.92;1.48;;;;;;;;;;6192114;28;20059;-79
2023/05/16 17:31:26;;;;;;;2.05;1.52;;;;;;;;;;6192489;28;20113;-78
2023/05/16 17:34:28;;;;;;;3.58;1.50;;;;;;;;;;6191146;28;20345;-78
2023/05/16 17:37:33;;;;;;;3.15;1.45;;;;;;;;;;6193940;28;20061;-79
2023/05/16 17:40:36;;;;;;;3.65;1.50;;;;;;;;;;6190298;28;20271;-78
2023/05/16 17:43:39;;;;;;;3.58;1.58;;;;;;;;;;6191819;28;20065;-78
2023/05/16 17:46:48;;;;;;;1.95;1.30;;;;;;;;;;6189488;28;20239;-78
2023/05/16 17:49:50;;;;;;;2.38;1.60;;;;;;;;;;6192807;28;20417;-79
2023/05/16 17:52:52;;;;;;;1.83;1.25;;;;;;;;;;6189960;28;20054;-79
2023/05/16 17:55:53;;;;;;;3.13;1.60;;;;;;;;;;6194045;28;20054;-75
2023/05/16 17:59:00;;;;;;;3.92;1.55;;;;;;;;;;6191890;28;20046;-80
2023/05/16 18:02:13;;;;;;;3.60;1.55;;;;;;;;;;6189560;28;20058;-79
2023/05/16 18:05:23;;;;;;;4.38;1.77;;;;;;;;;;6194029;28;20077;-80
2023/05/16 18:08:28;;;;;;;2.78;1.23;;;;;;;;;;6187541;28;21135;-87
2023/05/16 18:11:30;;;;;;;2.85;1.25;;;;;;;;;;6147870;28;20047;-85